Time;durP1;ratioP1;P1;durP2;ratioP2;P2;SDS_P1;SDS_P2;PMS_P1;PMS_P2;Temp;Humidity;BMP_temperature;BMP_pressure;BME280_temperature;BME280_humidity;BME280_pressure;Samples;Min_cycle;Max_cycle;Signal;HPM_P1;HPM_P2
2022/04/22 00:01:21;;;;;;;0.80;0.80;;;21.90;63.10;;;;;;5080369;28;20416;-67
2022/04/22 00:03:47;;;;;;;0.67;0.67;;;;;;;;;;5080413;28;20418;-67
2022/04/22 00:06:13;;;;;;;0.50;0.50;;;22.40;53.10;;;;;;5079293;28;20423;-67
2022/04/22 00:08:39;;;;;;;1.60;0.60;;;;;;;;;;5083092;28;20440;-67
2022/04/22 00:13:50;;;;;;;0.80;0.80;;;;;;;;;;5082973;28;20460;-67
2022/04/22 00:16:21;;;;;;;0.60;0.60;;;;;;;;;;5080321;28;20406;-67
2022/04/22 00:18:46;;;;;;;0.80;0.80;;;;;;;;;;5079981;28;20527;-67
2022/04/22 00:21:13;;;;;;;0.73;0.73;;;;;;;;;;5078900;28;20932;-67
2022/04/22 00:23:39;;;;;;;0.73;0.73;;;;;;;;;;5078772;28;20512;-67
2022/04/22 00:26:04;;;;;;;0.80;0.80;;;21.90;64.10;;;;;;5081301;28;21171;-67
2022/04/22 00:28:30;;;;;;;0.60;0.60;;;;;;;;;;5078660;28;20467;-67
2022/04/22 00:30:56;;;;;;;0.70;0.70;;;;;;;;;;5078074;28;20175;-67
2022/04/22 00:33:22;;;;;;;0.80;0.80;;;;;;;;;;5078502;28;20447;-67
2022/04/22 00:35:48;;;;;;;0.50;0.50;;;;;;;;;;5079840;28;20473;-67
2022/04/22 00:38:14;;;;;;;0.90;0.90;;;21.80;59.60;;;;;;5078362;28;20441;-67
2022/04/22 00:40:41;;;;;;;0.60;0.60;;;22.60;67.10;;;;;;5079200;28;20474;-67
2022/04/22 00:43:21;;;;;;;0.80;0.80;;;21.60;47.60;;;;;;5080454;28;20416;-68
2022/04/22 00:45:48;;;;;;;0.50;0.50;;;21.50;50.40;;;;;;5082085;28;20860;-67
2022/04/22 00:48:15;;;;;;;0.60;0.60;;;21.60;47.90;;;;;;5087069;28;20572;-67
2022/04/22 00:50:41;;;;;;;0.60;0.60;;;21.30;66.80;;;;;;5086359;28;20517;-67
2022/04/22 00:53:08;;;;;;;0.90;0.90;;;21.60;70.00;;;;;;5089274;28;20421;-67
2022/04/22 00:55:37;;;;;;;1.07;0.73;;;21.60;47.80;;;;;;5083936;28;20654;-68
2022/04/22 00:58:03;;;;;;;0.70;0.70;;;21.80;67.30;;;;;;5086936;28;20509;-67
2022/04/22 01:00:29;;;;;;;0.93;0.93;;;;;;;;;;5088296;28;20593;-67
2022/04/22 01:02:55;;;;;;;0.97;0.97;;;;;;;;;;5089081;28;20404;-67
2022/04/22 01:10:53;;;;;;;0.87;0.87;;;;;;;;;;5085023;28;20527;-67
2022/04/22 01:13:18;;;;;;;0.87;0.87;;;;;;;;;;5089016;28;20408;-68
2022/04/22 01:15:44;;;;;;;0.50;0.50;;;21.70;62.10;;;;;;5083198;28;20552;-68
2022/04/22 01:18:10;;;;;;;1.00;1.00;;;21.40;66.40;;;;;;5089058;28;20432;-67
2022/04/22 01:20:36;;;;;;;0.80;0.80;;;21.80;72.30;;;;;;5084963;28;20421;-67
2022/04/22 01:23:02;;;;;;;0.70;0.70;;;21.40;66.60;;;;;;5080509;28;20436;-67
2022/04/22 01:25:27;;;;;;;0.70;0.70;;;21.70;67.40;;;;;;5087242;28;20188;-67
2022/04/22 01:27:55;;;;;;;0.80;0.80;;;21.60;48.30;;;;;;5088099;28;20565;-67
2022/04/22 01:30:22;;;;;;;0.63;0.63;;;21.60;52.60;;;;;;5088238;28;20693;-67
2022/04/22 01:32:54;;;;;;;0.70;0.70;;;21.50;47.50;;;;;;5086844;28;20432;-67
2022/04/22 01:35:20;;;;;;;0.70;0.67;;;;;;;;;;5087165;28;20482;-67
2022/04/22 01:37:47;;;;;;;0.70;0.70;;;21.60;56.20;;;;;;5088583;28;20428;-67
2022/04/22 01:40:13;;;;;;;0.70;0.70;;;;;;;;;;5079328;28;20499;-67
2022/04/22 01:42:39;;;;;;;0.67;0.67;;;;;;;;;;5068633;28;20779;-67
2022/04/22 01:45:06;;;;;;;0.80;0.80;;;21.60;51.60;;;;;;5085729;28;20420;-67
2022/04/22 01:47:32;;;;;;;0.73;0.73;;;21.30;55.80;;;;;;5088318;28;20535;-67
2022/04/22 01:49:57;;;;;;;0.60;0.60;;;21.30;71.80;;;;;;5092647;28;20435;-67
2022/04/22 01:52:24;;;;;;;0.60;0.60;;;21.60;67.30;;;;;;5079521;28;20463;-68
2022/04/22 01:54:51;;;;;;;0.60;0.60;;;;;;;;;;5072089;28;20199;-68
2022/04/22 01:57:17;;;;;;;0.80;0.70;;;;;;;;;;5071755;28;20407;-68
2022/04/22 01:59:44;;;;;;;0.60;0.60;;;21.40;56.30;;;;;;5082781;28;20440;-67
2022/04/22 02:02:10;;;;;;;0.70;0.70;;;;;;;;;;5092085;28;20788;-67
2022/04/22 02:04:36;;;;;;;0.50;0.50;;;;;;;;;;5092237;28;20924;-68
2022/04/22 02:07:02;;;;;;;0.77;0.77;;;;;;;;;;5087506;28;20425;-68
2022/04/22 02:09:28;;;;;;;0.80;0.80;;;;;;;;;;5070648;28;20494;-68
2022/04/22 02:11:54;;;;;;;0.57;0.57;;;21.30;61.00;;;;;;5076922;28;20464;-68
2022/04/22 02:14:20;;;;;;;0.70;0.60;;;;;;;;;;5092184;28;20535;-67
2022/04/22 02:16:46;;;;;;;0.77;0.77;;;;;;;;;;5079158;28;20446;-67
2022/04/22 02:19:12;;;;;;;0.70;0.70;;;;;;;;;;5071878;28;20526;-68
2022/04/22 02:21:38;;;;;;;0.63;0.63;;;;;;;;;;5072028;28;20487;-68
2022/04/22 02:24:04;;;;;;;0.87;0.87;;;21.20;56.20;;;;;;5071633;28;20179;-68
2022/04/22 02:28:31;;;;;;;0.73;0.73;;;;;;;;;;5087897;28;20175;-68
2022/04/22 02:29:17;;;;;;;0.70;0.70;;;21.60;48.30;;;;;;5084490;28;20769;-68
2022/04/22 02:31:43;;;;;;;0.77;0.77;;;;;;;;;;5091283;28;20827;-68
2022/04/22 02:34:09;;;;;;;0.77;0.77;;;;;;;;;;5075006;28;20409;-68
2022/04/22 02:36:35;;;;;;;0.70;0.70;;;;;;;;;;5071217;28;20509;-68
2022/04/22 02:39:01;;;;;;;0.77;0.77;;;;;;;;;;5075554;28;20936;-68
2022/04/22 02:46:55;;;;;;;0.83;0.83;;;21.50;62.70;;;;;;5071533;28;20405;-68
2022/04/22 02:49:21;;;;;;;0.80;0.77;;;;;;;;;;5071242;28;20433;-68
2022/04/22 02:51:47;;;;;;;0.63;0.63;;;;;;;;;;5071381;28;20207;-68
2022/04/22 02:54:13;;;;;;;0.70;0.70;;;;;;;;;;5079893;28;20202;-68
2022/04/22 02:56:39;;;;;;;0.63;0.63;;;;;;;;;;5070889;28;20171;-68
2022/04/22 02:59:05;;;;;;;0.60;0.60;;;21.20;57.10;;;;;;5071090;28;20443;-68
2022/04/22 03:01:31;;;;;;;0.67;0.67;;;;;;;;;;5070386;28;20840;-67
2022/04/22 03:03:57;;;;;;;0.63;0.63;;;21.50;47.80;;;;;;5070847;28;20405;-68
2022/04/22 03:06:26;;;;;;;0.60;0.60;;;;;;;;;;5074409;28;20538;-68
2022/04/22 03:08:52;;;;;;;0.60;0.60;;;;;;;;;;5070805;28;20421;-68
2022/04/22 03:11:21;;;;;;;1.43;0.70;;;;;;;;;;5070857;28;20463;-67
2022/04/22 03:13:49;;;;;;;0.70;0.70;;;;;;;;;;5070964;28;20469;-68
2022/04/22 03:16:16;;;;;;;0.70;0.70;;;21.30;66.50;;;;;;5073284;28;20478;-67
2022/04/22 03:18:42;;;;;;;0.70;0.70;;;;;;;;;;5085492;28;20527;-68
2022/04/22 03:21:08;;;;;;;0.60;0.60;;;21.60;71.90;;;;;;5083059;28;20973;-67
2022/04/22 03:23:34;;;;;;;0.60;0.60;;;;;;;;;;5090074;28;20421;-68
2022/04/22 03:25:59;;;;;;;0.83;0.83;;;;;;;;;;5090381;28;20261;-68
2022/04/22 03:28:26;;;;;;;0.90;0.73;;;;;;;;;;5090589;28;20230;-68
2022/04/22 03:30:52;;;;;;;0.57;0.57;;;;;;;;;;5077779;28;20453;-68
2022/04/22 03:33:18;;;;;;;1.00;0.90;;;;;;;;;;5076565;28;20923;-68
2022/04/22 03:35:45;;;;;;;0.70;0.70;;;21.50;47.90;;;;;;5069941;28;20678;-68
2022/04/22 03:38:11;;;;;;;0.80;0.80;;;21.50;47.70;;;;;;5070335;28;20575;-68
2022/04/22 03:40:37;;;;;;;0.70;0.70;;;21.40;50.40;;;;;;5070265;28;20882;-67
2022/04/22 03:43:03;;;;;;;0.70;0.70;;;21.20;53.70;;;;;;5070392;28;20433;-68
2022/04/22 03:45:29;;;;;;;0.60;0.60;;;;;;;;;;5079338;28;20204;-67
2022/04/22 03:47:59;;;;;;;1.57;0.70;;;;;;;;;;5075876;28;20457;-68
2022/04/22 03:50:28;;;;;;;0.80;0.80;;;21.40;47.40;;;;;;5070016;28;20453;-68
2022/04/22 03:52:54;;;;;;;0.60;0.60;;;;;;;;;;5070464;28;20409;-67
2022/04/22 03:55:20;;;;;;;0.67;0.67;;;;;;;;;;5077297;28;20479;-67
2022/04/22 04:00:32;;;;;;;0.60;0.60;;;;;;;;;;5069748;28;20972;-68
2022/04/22 04:02:58;;;;;;;0.90;0.90;;;;;;;;;;5069718;28;20783;-67
2022/04/22 04:05:24;;;;;;;0.80;0.80;;;;;;;;;;5082558;28;20423;-67
2022/04/22 04:07:50;;;;;;;0.70;0.70;;;;;;;;;;5076357;28;20957;-67
2022/04/22 04:15:59;;;;;;;0.70;0.67;;;21.40;59.20;;;;;;5069346;28;20460;-67
2022/04/22 04:18:26;;;;;;;0.63;0.63;;;21.20;71.40;;;;;;5074677;28;21989;-67
2022/04/22 04:23:37;;;;;;;0.80;0.80;;;;;;;;;;5089846;28;20765;-67
2022/04/22 04:26:03;;;;;;;0.90;0.70;;;;;;;;;;5089264;28;20542;-67
2022/04/22 04:28:29;;;;;;;0.77;0.77;;;;;;;;;;5089482;28;20432;-67
2022/04/22 04:30:55;;;;;;;0.93;0.93;;;21.40;72.40;;;;;;5088038;28;20478;-67
2022/04/22 04:33:21;;;;;;;0.80;0.80;;;23.10;48.50;;;;;;5089266;28;20436;-67
2022/04/22 04:35:48;;;;;;;0.80;0.80;;;21.70;55.10;;;;;;5088971;28;20202;-67
2022/04/22 04:38:14;;;;;;;0.70;0.70;;;21.50;66.90;;;;;;5089346;28;20966;-67
2022/04/22 04:40:40;;;;;;;0.80;0.80;;;;;;;;;;5089171;28;20436;-68
2022/04/22 04:43:06;;;;;;;0.73;0.73;;;21.60;54.80;;;;;;5075841;28;20417;-67
2022/04/22 04:45:35;;;;;;;0.80;0.70;;;21.50;59.00;;;;;;5068948;28;20413;-67
2022/04/22 04:48:02;;;;;;;0.77;0.77;;;21.60;52.20;;;;;;5069239;28;20191;-67
2022/04/22 04:50:28;;;;;;;0.70;0.70;;;;;;;;;;5069214;28;20885;-67
2022/04/22 04:52:54;;;;;;;0.77;0.77;;;;;;;;;;5069206;28;20409;-68
2022/04/22 04:55:20;;;;;;;0.67;0.67;;;;;;;;;;5085821;28;20467;-67
2022/04/22 04:57:46;;;;;;;0.60;0.60;;;;;;;;;;5089072;28;20205;-67
2022/04/22 05:00:13;;;;;;;0.90;0.90;;;21.40;69.60;;;;;;5078000;28;20417;-67
2022/04/22 05:02:39;;;;;;;1.17;0.80;;;;;;;;;;5070432;28;20419;-68
2022/04/22 05:05:06;;;;;;;0.73;0.73;;;21.30;52.50;;;;;;5088956;28;20982;-68
2022/04/22 05:07:47;;;;;;;0.80;0.80;;;21.40;47.20;;;;;;5082326;28;20565;-67
2022/04/22 05:10:12;;;;;;;0.97;0.97;;;21.50;64.60;;;;;;5087707;28;20769;-67
2022/04/22 05:12:38;;;;;;;0.90;0.90;;;21.50;57.70;;;;;;5083458;28;20974;-67
2022/04/22 05:15:04;;;;;;;0.60;0.60;;;21.40;58.50;;;;;;5089116;28;20237;-68
2022/04/22 05:17:30;;;;;;;0.60;0.60;;;21.20;71.40;;;;;;5089201;28;20595;-67
2022/04/22 05:19:56;;;;;;;0.67;0.67;;;21.40;71.20;;;;;;5088170;28;20523;-67
2022/04/22 05:22:22;;;;;;;0.90;0.90;;;;;;;;;;5089180;28;20266;-67
2022/04/22 05:24:48;;;;;;;0.90;0.90;;;;;;;;;;5092668;28;20499;-67
2022/04/22 05:27:14;;;;;;;0.97;0.97;;;;;;;;;;5092777;28;20863;-67
2022/04/22 05:32:36;;;;;;;0.73;0.73;;;;;;;;;;5078619;28;20685;-67
2022/04/22 05:35:05;;;;;;;0.80;0.80;;;21.40;70.90;;;;;;5092999;28;20456;-66
2022/04/22 05:37:48;;;;;;;0.90;0.90;;;21.40;47.20;;;;;;5092195;28;20493;-67
2022/04/22 05:40:16;;;;;;;0.70;0.70;;;21.30;68.50;;;;;;5091020;28;20482;-67
2022/04/22 05:42:42;;;;;;;0.90;0.90;;;21.70;70.90;;;;;;5086957;28;21115;-67
2022/04/22 05:45:09;;;;;;;0.80;0.80;;;21.40;47.70;;;;;;5092161;28;20424;-67
2022/04/22 05:47:36;;;;;;;0.97;0.97;;;21.60;48.60;;;;;;5092285;28;20764;-69
2022/04/22 05:50:04;;;;;;;0.97;0.97;;;21.40;63.60;;;;;;5085375;28;20436;-67
2022/04/22 05:52:31;;;;;;;2.10;2.00;;;21.30;47.90;;;;;;5090661;28;20902;-67
2022/04/22 05:54:57;;;;;;;2.40;2.30;;;;;;;;;;5092144;28;20452;-67
2022/04/22 05:57:24;;;;;;;3.53;2.70;;;;;;;;;;5085498;28;20808;-67
2022/04/22 05:59:50;;;;;;;4.27;2.20;;;;;;;;;;5071919;28;20552;-67
2022/04/22 06:02:18;;;;;;;3.20;3.00;;;;;;;;;;5072490;28;20405;-67
2022/04/22 06:04:43;;;;;;;3.27;3.07;;;21.40;63.90;;;;;;5092284;28;20409;-67
2022/04/22 06:07:09;;;;;;;3.30;3.10;;;;;;;;;;5085920;28;20536;-67
2022/04/22 06:12:21;;;;;;;2.80;2.70;;;;;;;;;;5071977;28;20499;-67
2022/04/22 06:14:46;;;;;;;2.00;1.90;;;21.20;65.70;;;;;;5077331;28;20452;-68
2022/04/22 06:17:12;;;;;;;2.80;2.60;;;21.40;66.00;;;;;;5087253;28;20439;-67
2022/04/22 06:19:38;;;;;;;3.00;2.80;;;21.50;69.40;;;;;;5092268;28;20181;-67
2022/04/22 06:22:04;;;;;;;3.30;3.10;;;21.00;59.70;;;;;;5092239;28;20491;-67
2022/04/22 06:24:30;;;;;;;3.40;3.30;;;;;;;;;;5091868;28;20552;-67
2022/04/22 06:26:56;;;;;;;2.80;2.60;;;;;;;;;;5082424;28;20445;-67
2022/04/22 06:29:22;;;;;;;3.60;3.40;;;;;;;;;;5071528;28;20935;-67
2022/04/22 06:31:48;;;;;;;3.77;3.57;;;;;;;;;;5086035;28;20460;-67
2022/04/22 06:34:14;;;;;;;4.40;4.20;;;;;;;;;;5091390;28;20439;-67
2022/04/22 06:36:40;;;;;;;3.77;3.50;;;;;;;;;;5081001;28;20421;-67
2022/04/22 06:39:06;;;;;;;3.57;3.37;;;;;;;;;;5071457;28;20815;-67
2022/04/22 06:47:10;;;;;;;3.47;3.27;;;21.20;45.50;;;;;;5071472;28;20417;-67
2022/04/22 06:49:36;;;;;;;4.80;4.17;;;;;;;;;;5091172;28;20977;-67
2022/04/22 06:52:02;;;;;;;5.43;3.70;;;21.40;53.90;;;;;;5091654;28;20404;-67
2022/04/22 06:54:28;;;;;;;3.87;3.67;;;;;;;;;;5090789;28;20463;-66
2022/04/22 06:56:54;;;;;;;4.07;3.80;;;;;;;;;;5072037;28;20183;-67
2022/04/22 06:59:22;;;;;;;3.53;3.23;;;;;;;;;;5070852;28;20425;-67
2022/04/22 07:01:48;;;;;;;3.83;3.53;;;;;;;;;;5071129;28;20588;-67
2022/04/22 07:04:14;;;;;;;4.90;3.50;;;21.00;49.80;;;;;;5071407;28;20401;-67
2022/04/22 07:06:41;;;;;;;3.67;3.47;;;21.50;64.90;;;;;;5079426;28;20421;-67
2022/04/22 07:09:07;;;;;;;3.87;3.60;;;21.20;63.40;;;;;;5071994;28;20921;-67
2022/04/22 07:11:35;;;;;;;4.20;3.90;;;21.20;45.20;;;;;;5076530;28;20538;-67
2022/04/22 07:14:01;;;;;;;4.37;4.07;;;21.20;49.80;;;;;;5082210;28;20211;-67
2022/04/22 07:16:28;;;;;;;4.30;4.00;;;21.20;45.20;;;;;;5090701;28;20925;-67
2022/04/22 07:19:37;;;;;;;4.50;4.20;;;;;;;;;;5117345;27;20536;-69
2022/04/22 07:22:03;;;;;;;3.90;3.60;;;;;;;;;;5086341;28;20432;-67
2022/04/22 07:24:29;;;;;;;3.93;3.63;;;;;;;;;;5092125;28;20468;-66
2022/04/22 07:26:56;;;;;;;5.17;2.73;;;20.70;50.70;;;;;;5101429;28;20818;-64
2022/04/22 07:29:24;;;;;;;3.07;2.87;;;21.30;57.50;;;;;;5100526;28;20522;-64
2022/04/22 07:31:50;;;;;;;3.80;3.60;;;;;;;;;;5081826;28;20438;-67
2022/04/22 07:34:16;;;;;;;5.43;3.00;;;;;;;;;;5081367;28;20550;-67
2022/04/22 07:36:43;;;;;;;2.73;2.63;;;;;;;;;;5086226;28;20415;-67
2022/04/22 07:39:11;;;;;;;2.83;2.60;;;;;;;;;;5095889;28;20512;-67
2022/04/22 07:41:39;;;;;;;3.13;2.87;;;21.40;55.00;;;;;;5084326;28;20454;-68
2022/04/22 07:46:58;;;;;;;1.77;1.77;;;;;;;;;;5087053;28;20864;-67
2022/04/22 07:49:25;;;;;;;2.17;2.07;;;;;;;;;;5087097;28;20896;-68
2022/04/22 07:51:51;;;;;;;1.60;1.60;;;;;;;;;;5102664;28;20849;-67
2022/04/22 07:54:17;;;;;;;2.30;1.80;;;;;;;;;;5106418;28;20264;-67
2022/04/22 07:56:43;;;;;;;2.10;2.00;;;;;;;;;;5105929;28;20424;-66
2022/04/22 07:59:09;;;;;;;1.60;1.60;;;;;;;;;;5106277;28;20540;-67
2022/04/22 08:01:35;;;;;;;2.83;2.60;;;;;;;;;;5102632;28;20417;-66
2022/04/22 08:04:01;;;;;;;2.60;2.50;;;;;;;;;;5088920;28;20524;-66
2022/04/22 08:06:27;;;;;;;2.00;1.90;;;;;;;;;;5082777;28;20429;-67
2022/04/22 08:08:53;;;;;;;1.80;1.80;;;;;;;;;;5085383;28;20437;-67
2022/04/22 08:11:20;;;;;;;2.13;2.03;;;;;;;;;;5085522;28;20473;-67
2022/04/22 08:13:46;;;;;;;2.10;2.00;;;;;;;;;;5086353;28;20425;-66
2022/04/22 08:16:12;;;;;;;2.90;2.27;;;;;;;;;;5085395;28;20423;-66
2022/04/22 08:18:38;;;;;;;2.30;2.20;;;;;;;;;;5088768;28;20463;-66
2022/04/22 08:21:04;;;;;;;2.80;2.70;;;;;;;;;;5105165;28;20860;-68
2022/04/22 08:23:30;;;;;;;1.97;1.87;;;;;;;;;;5085336;28;20397;-68
2022/04/22 08:25:57;;;;;;;1.90;1.90;;;;;;;;;;5081098;28;20870;-68
2022/04/22 08:28:23;;;;;;;2.53;2.37;;;;;;;;;;5078633;28;20202;-68
2022/04/22 08:30:49;;;;;;;2.00;1.90;;;;;;;;;;5073398;28;20425;-68
2022/04/22 08:33:16;;;;;;;2.13;2.03;;;;;;;;;;5071796;28;20413;-69
2022/04/22 08:35:42;;;;;;;2.70;2.20;;;;;;;;;;5071539;28;20909;-68
2022/04/22 08:38:08;;;;;;;2.58;2.47;;;;;;;;;;5071525;28;20529;-68
2022/04/22 08:40:36;;;;;;;1.87;1.77;;;21.80;55.30;;;;;;5071721;28;20168;-70
2022/04/22 08:43:03;;;;;;;2.20;2.10;;;;;;;;;;5072804;28;20486;-68
2022/04/22 08:45:29;;;;;;;2.47;2.37;;;;;;;;;;5071327;28;20485;-66
2022/04/22 08:50:42;;;;;;;1.83;1.73;;;21.90;54.60;;;;;;5072499;28;20869;-67
2022/04/22 08:53:11;;;;;;;2.10;2.00;;;21.90;63.70;;;;;;5083987;28;20944;-66
2022/04/22 08:55:39;;;;;;;2.33;2.23;;;22.00;56.10;;;;;;5071241;28;20398;-68
2022/04/22 08:58:05;;;;;;;1.97;1.87;;;;;;;;;;5070972;28;20898;-67
2022/04/22 09:00:36;;;;;;;1.95;1.85;;;22.00;72.10;;;;;;5071056;28;20937;-70
2022/04/22 09:03:02;;;;;;;2.03;1.93;;;;;;;;;;5071861;28;20266;-68
2022/04/22 09:05:29;;;;;;;2.13;1.93;;;;;;;;;;5081113;28;20893;-68
2022/04/22 09:07:56;;;;;;;2.20;2.00;;;;;;;;;;5077777;28;20433;-67
2022/04/22 09:10:22;;;;;;;1.77;1.67;;;;;;;;;;5071034;28;20410;-68
2022/04/22 09:12:57;;;;;;;2.90;2.13;;;;;;;;;;5070789;28;20836;-68
2022/04/22 09:15:28;;;;;;;2.05;1.95;;;;;;;;;;5071890;28;20897;-68
2022/04/22 09:17:57;;;;;;;2.00;1.90;;;;;;;;;;5070819;28;20257;-68
2022/04/22 09:20:28;;;;;;;1.90;1.80;;;;;;;;;;5074960;28;20410;-67
2022/04/22 09:22:55;;;;;;;1.80;1.70;;;;;;;;;;5085539;28;20421;-67
2022/04/22 09:25:23;;;;;;;2.00;1.90;;;21.90;57.30;;;;;;5086596;28;20424;-67
2022/04/22 09:27:49;;;;;;;1.80;1.70;;;;;;;;;;5088691;28;20448;-66
2022/04/22 09:30:16;;;;;;;1.90;1.80;;;;;;;;;;5084664;28;21267;-67
2022/04/22 09:32:44;;;;;;;2.53;2.33;;;22.10;58.00;;;;;;5086961;28;20421;-66
2022/04/22 09:35:15;;;;;;;2.60;2.40;;;;;;;;;;5076243;28;20508;-67
2022/04/22 09:43:24;;;;;;;2.10;2.00;;;;;;;;;;5090749;28;20393;-67
2022/04/22 09:45:52;;;;;;;2.00;1.90;;;22.20;59.50;;;;;;5081458;28;20506;-67
2022/04/22 09:48:20;;;;;;;2.30;2.10;;;;;;;;;;5090739;28;20501;-67
2022/04/22 09:50:55;;;;;;;1.90;1.80;;;;;;;;;;5090692;28;20405;-67
2022/04/22 09:53:33;;;;;;;2.28;2.17;;;22.00;55.20;;;;;;5090839;28;20408;-67
2022/04/22 09:56:04;;;;;;;1.77;1.77;;;;;;;;;;5090251;28;20254;-67
2022/04/22 09:58:30;;;;;;;2.30;2.20;;;;;;;;;;5050405;28;20450;-67
2022/04/22 10:00:58;;;;;;;2.50;2.40;;;;;;;;;;5059840;28;20946;-67
2022/04/22 10:03:27;;;;;;;2.23;2.00;;;21.90;60.80;;;;;;5090612;28;20477;-66
2022/04/22 10:05:53;;;;;;;2.47;2.27;;;;;;;;;;5088977;28;20931;-66
2022/04/22 10:08:21;;;;;;;2.07;1.97;;;;;;;;;;5069613;28;20459;-66
2022/04/22 10:10:47;;;;;;;4.00;2.63;;;;;;;;;;5078898;28;20488;-66
2022/04/22 10:13:18;;;;;;;3.03;2.57;;;;;;;;;;5090371;28;20173;-66
2022/04/22 10:15:45;;;;;;;2.60;2.50;;;;;;;;;;5089774;28;20496;-68
2022/04/22 10:18:15;;;;;;;2.20;2.10;;;;;;;;;;5065708;28;20675;-66
2022/04/22 10:20:43;;;;;;;2.17;2.00;;;;;;;;;;5049836;28;20418;-67
2022/04/22 10:23:09;;;;;;;2.33;2.23;;;;;;;;;;5072666;28;20446;-66
2022/04/22 10:25:35;;;;;;;2.47;2.37;;;;;;;;;;5072466;28;20482;-67
2022/04/22 10:28:02;;;;;;;2.53;2.43;;;;;;;;;;5069443;28;21020;-66
2022/04/22 10:30:29;;;;;;;1.90;1.80;;;;;;;;;;5083220;28;20417;-66
2022/04/22 10:32:56;;;;;;;2.40;2.25;;;22.00;64.70;;;;;;5073295;28;20893;-66
2022/04/22 10:35:23;;;;;;;3.10;2.90;;;;;;;;;;5069751;28;20604;-66
2022/04/22 10:37:49;;;;;;;2.73;2.63;;;;;;;;;;5076902;28;20456;-66
2022/04/22 10:40:23;;;;;;;5.70;5.20;;;;;;;;;;5066045;28;20425;-66
2022/04/22 10:42:50;;;;;;;19.70;14.85;;;21.90;57.40;;;;;;5072434;28;20438;-66
2022/04/22 10:48:21;;;;;;;2.23;2.13;;;21.80;56.50;;;;;;5069769;28;20440;-66
2022/04/22 10:51:14;;;;;;;2.37;2.27;;;21.80;51.20;;;;;;5069344;28;20416;-66
2022/04/22 10:53:45;;;;;;;2.73;2.63;;;21.30;52.10;;;;;;5072449;28;20545;-66
2022/04/22 10:56:26;;;;;;;2.13;2.03;;;21.80;49.90;;;;;;5068974;28;20405;-66
2022/04/22 10:59:20;;;;;;;2.37;2.27;;;21.90;47.70;;;;;;5069050;28;20573;-66
2022/04/22 11:01:47;;;;;;;1.80;1.80;;;;;;;;;;5069523;28;20424;-66
2022/04/22 11:04:24;;;;;;;2.13;2.03;;;21.70;47.50;;;;;;5065176;28;20425;-66
2022/04/22 11:06:50;;;;;;;1.93;1.80;;;;;;;;;;5071173;28;20885;-66
2022/04/22 11:09:28;;;;;;;1.73;1.63;;;21.70;47.60;;;;;;5068732;28;20433;-66
2022/04/22 11:11:55;;;;;;;2.40;2.30;;;21.80;57.90;;;;;;5069309;28;21138;-66
2022/04/22 11:14:25;;;;;;;2.63;2.40;;;21.40;65.20;;;;;;5068911;28;20418;-66
2022/04/22 11:16:51;;;;;;;2.20;2.10;;;;;;;;;;5080245;28;20187;-66
2022/04/22 11:19:19;;;;;;;2.30;2.20;;;21.70;47.60;;;;;;5088666;28;20966;-66
2022/04/22 11:21:46;;;;;;;2.60;1.83;;;;;;;;;;5089213;28;20479;-66
2022/04/22 11:24:19;;;;;;;2.97;2.30;;;21.70;47.60;;;;;;5069653;28;20425;-66
2022/04/22 11:26:45;;;;;;;2.00;1.90;;;;;;;;;;5068507;28;20274;-66
2022/04/22 11:29:13;;;;;;;2.00;2.00;;;22.10;49.30;;;;;;5069610;28;20528;-66
2022/04/22 11:31:38;;;;;;;2.23;2.13;;;;;;;;;;5074581;28;20436;-66
2022/04/22 11:34:14;;;;;;;2.07;2.07;;;21.70;47.60;;;;;;5068821;28;20405;-66
2022/04/22 11:36:47;;;;;;;2.30;2.20;;;21.90;52.00;;;;;;5071764;28;20447;-66
2022/04/22 11:39:23;;;;;;;1.97;1.87;;;21.80;51.00;;;;;;5078743;28;20913;-66
2022/04/22 11:42:00;;;;;;;2.60;2.40;;;21.70;47.40;;;;;;5088833;28;20430;-66
2022/04/22 11:44:26;;;;;;;1.83;1.73;;;;;;;;;;5088929;28;20507;-66
2022/04/22 11:46:53;;;;;;;2.10;2.00;;;;;;;;;;5082165;28;20441;-66
2022/04/22 11:49:28;;;;;;;1.90;1.90;;;22.10;52.60;;;;;;5069795;28;20457;-66
2022/04/22 11:51:55;;;;;;;2.30;2.20;;;;;;;;;;5061136;28;20799;-66
2022/04/22 11:54:22;;;;;;;2.23;2.13;;;21.80;50.20;;;;;;5068410;28;20428;-66
2022/04/22 11:56:48;;;;;;;2.33;2.20;;;21.70;51.00;;;;;;5068226;28;20413;-66
2022/04/22 11:59:15;;;;;;;2.37;2.27;;;;;;;;;;5072818;28;20475;-70
2022/04/22 12:05:32;;;;;;;2.70;2.60;;;;;;;;;;5070828;28;20938;-69
2022/04/22 12:10:14;;;;;;;2.03;2.03;;;;;;;;;;5072077;28;20466;-69
2022/04/22 12:12:48;;;;;;;2.83;2.72;;;21.90;48.00;;;;;;5075438;28;20504;-70
2022/04/22 12:15:17;;;;;;;3.13;1.80;;;21.90;51.50;;;;;;5083305;28;20176;-69
2022/04/22 12:17:43;;;;;;;2.60;2.40;;;;;;;;;;5080083;28;20519;-67
2022/04/22 12:20:11;;;;;;;2.17;2.03;;;22.00;51.50;;;;;;5067609;28;20425;-67
2022/04/22 12:22:37;;;;;;;2.30;2.20;;;;;;;;;;5071597;28;20475;-68
2022/04/22 12:25:14;;;;;;;3.10;2.90;;;22.00;48.10;;;;;;5067440;28;20582;-68
2022/04/22 12:27:41;;;;;;;2.13;2.03;;;22.00;51.10;;;;;;5076187;28;20452;-67
2022/04/22 12:30:12;;;;;;;5.07;2.23;;;22.10;48.10;;;;;;5061208;28;20795;-66
2022/04/22 12:32:39;;;;;;;2.47;2.37;;;22.10;51.20;;;;;;5071507;28;20429;-67
2022/04/22 12:35:14;;;;;;;2.33;2.13;;;22.10;48.00;;;;;;5080431;28;20490;-68
2022/04/22 12:37:43;;;;;;;2.17;2.07;;;22.10;47.90;;;;;;5074542;28;20712;-67
2022/04/22 12:40:11;;;;;;;2.47;2.37;;;22.40;54.50;;;;;;5066006;28;20437;-67
2022/04/22 12:42:39;;;;;;;2.47;2.37;;;;;;;;;;5068980;28;20467;-67
2022/04/22 12:53:31;;;;;;;2.63;2.53;;;22.30;50.10;;;;;;5065715;28;20427;-65
2022/04/22 12:56:02;;;;;;;2.47;2.27;;;24.70;59.80;;;;;;5071193;28;20789;-67
2022/04/22 12:58:28;;;;;;;2.70;2.60;;;;;;;;;;5080092;28;20461;-67
2022/04/22 13:00:54;;;;;;;1.73;1.63;;;;;;;;;;5070797;28;20589;-67
2022/04/22 13:03:23;;;;;;;2.37;2.27;;;;;;;;;;5070184;28;20409;-73
2022/04/22 13:05:49;;;;;;;5.03;2.27;;;;;;;;;;5063635;28;20437;-67
2022/04/22 13:08:17;;;;;;;2.10;2.00;;;;;;;;;;5063903;28;20471;-67
2022/04/22 13:10:44;;;;;;;1.60;1.60;;;;;;;;;;5059012;28;20175;-67
2022/04/22 13:13:10;;;;;;;2.10;2.00;;;;;;;;;;5059964;28;20453;-66
2022/04/22 13:15:36;;;;;;;1.50;1.50;;;;;;;;;;5064964;28;20475;-67
2022/04/22 13:18:02;;;;;;;1.48;1.48;;;;;;;;;;5070797;28;20468;-66
2022/04/22 13:20:28;;;;;;;1.87;1.87;;;;;;;;;;5073671;28;20183;-67
2022/04/22 13:22:56;;;;;;;1.63;1.53;;;;;;;;;;5071351;28;20489;-67
2022/04/22 13:25:23;;;;;;;1.40;1.40;;;;;;;;;;5073224;28;20535;-67
2022/04/22 13:27:49;;;;;;;1.80;1.70;;;;;;;;;;5090810;28;20459;-67
2022/04/22 13:30:15;;;;;;;1.60;1.50;;;;;;;;;;5091135;28;20485;-66
2022/04/22 13:32:41;;;;;;;1.60;1.60;;;;;;;;;;5081837;28;20265;-67
2022/04/22 13:35:10;;;;;;;1.30;1.30;;;;;;;;;;5091467;28;20861;-67
2022/04/22 13:37:36;;;;;;;1.93;1.93;;;;;;;;;;5090908;28;20436;-67
2022/04/22 13:40:03;;;;;;;1.63;1.53;;;22.30;55.10;;;;;;5091230;28;20488;-67
2022/04/22 13:42:29;;;;;;;1.30;1.30;;;;;;;;;;5091212;28;20416;-66
2022/04/22 13:53:09;;;;;;;2.03;1.93;;;;;;;;;;5070584;28;20451;-67
2022/04/22 13:55:36;;;;;;;1.50;1.40;;;;;;;;;;5070291;28;20393;-66
2022/04/22 13:58:03;;;;;;;2.00;1.90;;;;;;;;;;5082167;28;20464;-67
2022/04/22 14:00:28;;;;;;;1.70;1.70;;;;;;;;;;5090216;28;20206;-67
2022/04/22 14:02:55;;;;;;;1.70;1.70;;;;;;;;;;5072603;28;20886;-66
2022/04/22 14:05:22;;;;;;;1.57;1.57;;;;;;;;;;5090186;28;20421;-67
2022/04/22 14:07:48;;;;;;;1.57;1.57;;;22.30;51.40;;;;;;5077408;28;20520;-66
2022/04/22 14:10:15;;;;;;;1.43;1.43;;;;;;;;;;5089969;28;20405;-67
2022/04/22 14:12:41;;;;;;;2.23;2.13;;;;;;;;;;5090186;28;20939;-67
2022/04/22 14:15:07;;;;;;;1.50;1.50;;;;;;;;;;5084940;28;20417;-67
2022/04/22 14:17:33;;;;;;;1.80;1.70;;;;;;;;;;5069186;28;20468;-66
2022/04/22 14:19:59;;;;;;;2.17;2.07;;;;;;;;;;5069837;28;20406;-67
2022/04/22 14:22:25;;;;;;;2.20;2.10;;;;;;;;;;5069783;28;20904;-67
2022/04/22 14:24:51;;;;;;;2.90;1.90;;;;;;;;;;5069791;28;20406;-66
2022/04/22 14:27:17;;;;;;;1.90;1.80;;;;;;;;;;5076784;28;20261;-67
2022/04/22 14:29:44;;;;;;;1.93;1.83;;;;;;;;;;5090061;28;20205;-67
2022/04/22 14:32:09;;;;;;;2.10;2.00;;;;;;;;;;5086404;28;20513;-67
2022/04/22 14:34:36;;;;;;;1.50;1.40;;;;;;;;;;5069460;28;20405;-66
2022/04/22 14:37:03;;;;;;;1.97;1.87;;;22.40;53.90;;;;;;5069237;28;20485;-66
2022/04/22 14:39:29;;;;;;;2.10;1.53;;;;;;;;;;5073907;28;20860;-67
2022/04/22 14:41:55;;;;;;;2.30;2.10;;;;;;;;;;5089786;28;20548;-66
2022/04/22 14:44:21;;;;;;;2.00;1.90;;;;;;;;;;5083827;28;20420;-66
2022/04/22 14:46:47;;;;;;;1.77;1.67;;;;;;;;;;5069257;28;20431;-66
2022/04/22 14:49:16;;;;;;;2.20;2.10;;;;;;;;;;5069523;28;20429;-67
2022/04/22 14:51:54;;;;;;;2.17;2.07;;;22.30;51.20;;;;;;5069573;28;20753;-66
2022/04/22 14:54:20;;;;;;;2.63;2.37;;;;;;;;;;5069536;28;20420;-66
2022/04/22 14:56:46;;;;;;;1.93;1.93;;;;;;;;;;5072721;28;20424;-66
2022/04/22 14:59:13;;;;;;;2.60;2.50;;;23.00;52.60;;;;;;5071710;28;20469;-67
2022/04/22 15:01:39;;;;;;;2.10;2.00;;;;;;;;;;5062193;28;20444;-66
2022/04/22 15:04:06;;;;;;;2.37;2.27;;;;;;;;;;5067870;28;20417;-67
2022/04/22 15:06:33;;;;;;;2.20;2.10;;;;;;;;;;5078551;28;20425;-66
2022/04/22 15:09:00;;;;;;;1.77;1.77;;;;;;;;;;5068720;28;20871;-67
2022/04/22 15:11:26;;;;;;;2.17;2.07;;;;;;;;;;5069756;28;20765;-66